Celanova — ECBX — position and weather

sailwx.info

Track history (hours):
 
Tides and Currents Weather Stations Pressure Air Temp Water Temp Dewpoint Dewpoint Depression Visibility Wind Speed Wind Dir Waves Ship Positions

Celanova

Last reported at 2018-Jan-01 18:41 UTC. Time now 2018-Jan-19 05:58 UTC.
Position N 36°06' E 016°19'.
Warning: this ship's position is 17 days out of date.

Length 119 m; draft 5.5 m.

Type: Ship. MMSI: 224991000.

Date/timePositionNaut miles runAvg speedWind from/ knotsBaromVisibWave heightAir tempDewpointWater temp
2018-Jan-01 18:41N 36°06' E 016°19'411.4
2018-Jan-01 18:22N 36°07' E 016°14'411.4
2018-Jan-01 18:01N 36°08' E 016°10'611.4
2018-Jan-01 17:31N 36°09' E 016°03'5611.8
2018-Jan-01 12:44N 36°25' E 014°56'912.5
2018-Jan-01 11:59N 36°27' E 014°44'612.2
2018-Jan-01 11:30N 36°29' E 014°37'611.8
2018-Jan-01 11:00N 36°30' E 014°30'611.3
2018-Jan-01 10:30N 36°32' E 014°24'611.2
2018-Jan-01 09:58N 36°34' E 014°16'511.2
2018-Jan-01 09:29N 36°35' E 014°10'1211.9
2018-Jan-01 08:30N 36°39' E 013°56'611.6
2018-Jan-01 07:57N 36°41' E 013°49'511.2
2018-Jan-01 07:30N 36°42' E 013°43'611.2
2018-Jan-01 07:00N 36°44' E 013°36'1111.6
2018-Jan-01 06:01N 36°47' E 013°22'711.6
2018-Jan-01 05:27N 36°50' E 013°15'511.6
2018-Jan-01 05:00N 36°51' E 013°09'454 8.8
2017-Dec-30 01:17N 38°41' E 003°51'310.5
2017-Dec-30 00:59N 38°42' E 003°47'5110.7
2017-Dec-29 20:12N 38°56' E 002°44'211.1
2017-Dec-29 20:00N 38°57' E 002°42'611.0
2017-Dec-29 19:30N 38°58' E 002°35'510.7
2017-Dec-29 19:00N 39°01' E 002°29'611.2
2017-Dec-29 18:29N 39°06' E 002°25'511.3
2017-Dec-29 18:00N 39°10' E 002°21'115 2.6
2017-Dec-27 21:48N 40°58' E 001°30'310.9
2017-Dec-27 21:30N 40°56' E 001°33'510.7
2017-Dec-27 21:00N 40°54' E 001°39'510.4
2017-Dec-27 20:30N 40°51' E 001°45'20 2.4
2017-Dec-27 12:15N 41°04' E 001°25'1 4.7
2017-Dec-27 11:59N 41°04' E 001°27'2 4.6
2017-Dec-27 11:30N 41°03' E 001°30'3 5.2
2017-Dec-27 11:00N 41°02' E 001°33'2 4.7
2017-Dec-27 10:30N 41°02' E 001°30'  
2017-Dec-24 16:12N 37°43' W 000°22'212.0
2017-Dec-24 16:00N 37°41' W 000°24'612.0
2017-Dec-24 15:30N 37°36' W 000°29'611.6
2017-Dec-24 15:00N 37°31' W 000°33'611.1
2017-Dec-24 14:29N 37°28' W 000°38'511.0
2017-Dec-24 14:00N 37°24' W 000°44'611.1
2017-Dec-24 13:30N 37°21' W 000°49'1111.2
2017-Dec-24 12:32N 37°13' W 000°59'218 8.1
2017-Dec-23 09:31N 35°56' W 005°13'0 8.2
2017-Dec-23 09:31N 35°56' W 005°13'612.7
2017-Dec-23 09:00N 35°57' W 005°21'815.3
2017-Dec-23 08:30N 35°57' W 005°30'  
Track history (hours):
 
Tides and Currents Weather Stations Pressure Air Temp Water Temp Dewpoint Dewpoint Depression Visibility Wind Speed Wind Dir Waves Ship Positions

Celanova

Last reported at 2018-Jan-01 18:41 UTC. Time now 2018-Jan-19 05:58 UTC.
Position N 36°06' E 016°19'.
Warning: this ship's position is 17 days out of date.

Length 119 m; draft 5.5 m.

Type: Ship. MMSI: 224991000.

Date/timePositionNaut miles runAvg speedWind from/ knotsBaromVisibWave heightAir tempDewpointWater temp
2018-Jan-01 18:41N 36°06' E 016°19'411.4
2018-Jan-01 18:22N 36°07' E 016°14'411.4
2018-Jan-01 18:01N 36°08' E 016°10'611.4
2018-Jan-01 17:31N 36°09' E 016°03'5611.8
2018-Jan-01 12:44N 36°25' E 014°56'912.5
2018-Jan-01 11:59N 36°27' E 014°44'612.2
2018-Jan-01 11:30N 36°29' E 014°37'611.8
2018-Jan-01 11:00N 36°30' E 014°30'611.3
2018-Jan-01 10:30N 36°32' E 014°24'611.2
2018-Jan-01 09:58N 36°34' E 014°16'511.2
2018-Jan-01 09:29N 36°35' E 014°10'1211.9
2018-Jan-01 08:30N 36°39' E 013°56'611.6
2018-Jan-01 07:57N 36°41' E 013°49'511.2
2018-Jan-01 07:30N 36°42' E 013°43'611.2
2018-Jan-01 07:00N 36°44' E 013°36'1111.6
2018-Jan-01 06:01N 36°47' E 013°22'711.6
2018-Jan-01 05:27N 36°50' E 013°15'511.6
2018-Jan-01 05:00N 36°51' E 013°09'454 8.8
2017-Dec-30 01:17N 38°41' E 003°51'310.5
2017-Dec-30 00:59N 38°42' E 003°47'5110.7
2017-Dec-29 20:12N 38°56' E 002°44'211.1
2017-Dec-29 20:00N 38°57' E 002°42'611.0
2017-Dec-29 19:30N 38°58' E 002°35'510.7
2017-Dec-29 19:00N 39°01' E 002°29'611.2
2017-Dec-29 18:29N 39°06' E 002°25'511.3
2017-Dec-29 18:00N 39°10' E 002°21'115 2.6
2017-Dec-27 21:48N 40°58' E 001°30'310.9
2017-Dec-27 21:30N 40°56' E 001°33'510.7
2017-Dec-27 21:00N 40°54' E 001°39'510.4
2017-Dec-27 20:30N 40°51' E 001°45'20 2.4
2017-Dec-27 12:15N 41°04' E 001°25'1 4.7
2017-Dec-27 11:59N 41°04' E 001°27'2 4.6
2017-Dec-27 11:30N 41°03' E 001°30'3 5.2
2017-Dec-27 11:00N 41°02' E 001°33'2 4.7
2017-Dec-27 10:30N 41°02' E 001°30'  
2017-Dec-24 16:12N 37°43' W 000°22'212.0
2017-Dec-24 16:00N 37°41' W 000°24'612.0
2017-Dec-24 15:30N 37°36' W 000°29'611.6
2017-Dec-24 15:00N 37°31' W 000°33'611.1
2017-Dec-24 14:29N 37°28' W 000°38'511.0
2017-Dec-24 14:00N 37°24' W 000°44'611.1
2017-Dec-24 13:30N 37°21' W 000°49'1111.2
2017-Dec-24 12:32N 37°13' W 000°59'218 8.1
2017-Dec-23 09:31N 35°56' W 005°13'0 8.2
2017-Dec-23 09:31N 35°56' W 005°13'612.7
2017-Dec-23 09:00N 35°57' W 005°21'815.3
2017-Dec-23 08:30N 35°57' W 005°30'  

Dump ship's entire track history